Time;durP1;ratioP1;P1;durP2;ratioP2;P2;SDS_P1;SDS_P2;PMS_P1;PMS_P2;Temp;Humidity;BMP_temperature;BMP_pressure;BME280_temperature;BME280_humidity;BME280_pressure;Samples;Min_cycle;Max_cycle;Signal;HPM_P1;HPM_P2
2023/03/16 00:01:15;;;;;;;19.13;16.42;;;;;;;-145.63;100.00;61273.97;5019405;28;20065;-65
2023/03/16 00:03:41;;;;;;;18.55;16.17;;;;;;;-145.63;100.00;61273.97;5012858;28;20037;-65
2023/03/16 00:06:06;;;;;;;20.77;16.63;;;;;;;-145.63;100.00;61273.97;5016809;28;20029;-65
2023/03/16 00:08:33;;;;;;;18.67;15.88;;;;;;;-145.63;100.00;61273.97;5007706;28;20093;-65
2023/03/16 00:10:59;;;;;;;18.08;15.38;;;;;;;-145.63;100.00;61273.97;5015134;28;20073;-66
2023/03/16 00:13:24;;;;;;;19.63;15.70;;;;;;;-145.63;100.00;61273.97;5010780;28;20026;-65
2023/03/16 00:15:52;;;;;;;21.02;16.23;;;;;;;-145.63;100.00;61273.97;5026386;28;20167;-66
2023/03/16 00:18:18;;;;;;;21.20;16.02;;;;;;;-145.63;100.00;61273.97;5019974;28;20029;-66
2023/03/16 00:20:43;;;;;;;18.65;15.40;;;;;;;-145.63;100.00;61273.97;5011228;28;20326;-66
2023/03/16 00:23:09;;;;;;;20.27;16.80;;;;;;;-145.63;100.00;61273.97;5020004;28;20030;-65
2023/03/16 00:25:35;;;;;;;23.75;16.65;;;;;;;-145.63;100.00;61273.97;5020079;28;20061;-66
2023/03/16 00:28:02;;;;;;;20.42;17.25;;;;;;;-145.63;100.00;61273.97;5015794;28;20363;-65
2023/03/16 00:30:31;;;;;;;22.05;17.70;;;;;;;-145.63;100.00;61273.97;5021755;28;20049;-65
2023/03/16 00:32:58;;;;;;;21.83;17.35;;;;;;;-145.63;100.00;61273.97;5012166;28;20030;-66
2023/03/16 00:35:24;;;;;;;21.75;18.10;;;;;;;-145.63;100.00;61273.97;5026319;28;20026;-66
2023/03/16 00:37:49;;;;;;;23.17;17.67;;;;;;;-145.63;100.00;61273.97;5015682;28;20240;-65
2023/03/16 00:40:15;;;;;;;27.25;19.52;;;;;;;-145.63;100.00;61273.97;5028785;28;20306;-65
2023/03/16 00:42:41;;;;;;;21.63;18.20;;;;;;;-145.63;100.00;61273.97;5029678;28;20041;-65
2023/03/16 00:45:07;;;;;;;21.50;17.70;;;;;;;-145.63;100.00;61273.97;5041128;28;20068;-65
2023/03/16 00:47:34;;;;;;;21.27;17.35;;;;;;;-145.63;100.00;61273.97;5025798;28;20029;-65
2023/03/16 00:50:01;;;;;;;20.65;17.70;;;;;;;-145.63;100.00;61273.97;5022662;28;20029;-65
2023/03/16 00:52:27;;;;;;;25.98;17.98;;;;;;;-145.63;100.00;61273.97;5012017;28;20030;-66
2023/03/16 00:54:54;;;;;;;21.88;17.52;;;;;;;-145.63;100.00;61273.97;5012326;28;20373;-65
2023/03/16 00:57:23;;;;;;;20.52;16.95;;;;;;;-145.63;100.00;61273.97;5040766;28;20076;-65
2023/03/16 00:59:49;;;;;;;22.08;18.38;;;;;;;-145.63;100.00;61273.97;5017390;28;20041;-65
2023/03/16 01:02:18;;;;;;;23.25;19.13;;;;;;;-145.63;100.00;61273.97;5035776;28;20101;-66
2023/03/16 01:04:43;;;;;;;22.70;18.70;;;;;;;-145.63;100.00;61273.97;5023665;28;20073;-65
2023/03/16 01:07:14;;;;;;;22.40;17.40;;;;;;;-145.63;100.00;61273.97;5022452;28;20326;-65
2023/03/16 01:09:41;;;;;;;19.83;16.98;;;;;;;-145.63;100.00;61273.97;5004892;28;20038;-67
2023/03/16 01:12:10;;;;;;;23.65;18.48;;;;;;;-145.63;100.00;61273.97;5021564;28;20026;-65
2023/03/16 01:14:37;;;;;;;20.75;17.20;;;;;;;-145.63;100.00;61273.97;5037939;28;20048;-66
2023/03/16 01:17:12;;;;;;;21.55;17.27;;;;;;;-145.63;100.00;61273.97;5026497;28;20104;-66
2023/03/16 01:19:45;;;;;;;18.13;15.85;;;;;;;-145.63;100.00;61273.97;5011590;28;20329;-66
2023/03/16 01:22:11;;;;;;;21.52;17.80;;;;;;;-145.63;100.00;61273.97;5026026;28;20410;-64
2023/03/16 01:24:37;;;;;;;18.75;16.00;;;;;;;-145.63;100.00;61273.97;5018444;28;20027;-66
2023/03/16 01:27:04;;;;;;;26.92;17.10;;;;;;;-145.63;100.00;61273.97;5022499;28;20168;-66
2023/03/16 01:29:32;;;;;;;18.88;15.90;;;;;;;-145.63;100.00;61273.97;5016648;28;20049;-65
2023/03/16 01:31:59;;;;;;;22.05;17.50;;;;;;;-145.63;100.00;61273.97;5029539;28;20307;-65
2023/03/16 01:34:25;;;;;;;20.35;16.17;;;;;;;-145.63;100.00;61273.97;5021384;28;20022;-65
2023/03/16 01:36:51;;;;;;;18.05;15.65;;;;;;;-145.63;100.00;61273.97;5020166;28;20194;-64
2023/03/16 01:39:17;;;;;;;16.80;15.00;;;;;;;-145.63;100.00;61273.97;5024082;28;20025;-65
2023/03/16 01:41:43;;;;;;;18.35;16.27;;;;;;;-145.63;100.00;61273.97;5024867;28;20329;-66
2023/03/16 01:44:15;;;;;;;21.05;15.82;;;;;;;-145.63;100.00;61273.97;5023344;28;20032;-66
2023/03/16 01:46:43;;;;;;;18.77;15.05;;;;;;;-145.63;100.00;61273.97;5019012;28;20042;-65
2023/03/16 01:49:11;;;;;;;20.25;15.77;;;;;;;-145.63;100.00;61273.97;5020017;28;20029;-66
2023/03/16 01:51:49;;;;;;;18.17;15.77;;;;;;;-145.63;100.00;61273.97;5008660;28;20287;-65
2023/03/16 01:54:20;;;;;;;18.23;15.60;;;;;;;-145.63;100.00;61273.97;5014455;28;20057;-66
2023/03/16 01:56:46;;;;;;;18.23;15.48;;;;;;;-145.63;100.00;61273.97;5023213;28;20092;-66
2023/03/16 01:59:17;;;;;;;20.02;15.98;;;;;;;-145.63;100.00;61273.97;5013700;28;20069;-66
2023/03/16 02:01:43;;;;;;;21.10;15.52;;;;;;;-145.63;100.00;61273.97;5010486;28;20025;-66
2023/03/16 02:04:23;;;;;;;19.05;13.52;;;;;;;-145.63;100.00;61273.97;5023031;28;20044;-65
2023/03/16 02:06:50;;;;;;;20.33;15.15;;;;;;;-145.63;100.00;61273.97;5017716;28;20034;-65
2023/03/16 02:09:17;;;;;;;21.17;15.35;;;;;;;-145.63;100.00;61273.97;5022366;28;20053;-65
2023/03/16 02:11:43;;;;;;;17.73;14.13;;;;;;;-145.63;100.00;61273.97;5018690;28;20069;-65
2023/03/16 02:14:13;;;;;;;22.58;15.73;;;;;;;-145.63;100.00;61273.97;5024067;28;20021;-66
2023/03/16 02:16:46;;;;;;;18.75;15.00;;;;;;;-145.63;100.00;61273.97;5023748;28;20326;-65
2023/03/16 02:19:26;;;;;;;19.20;13.90;;;;;;;-145.63;100.00;61273.97;5022822;28;20318;-66
2023/03/16 02:22:01;;;;;;;16.92;14.82;;;;;;;-145.63;100.00;61273.97;5009710;28;20304;-66
2023/03/16 02:24:26;;;;;;;18.20;14.57;;;;;;;-145.63;100.00;61273.97;5014518;28;20206;-65
2023/03/16 02:27:16;;;;;;;16.67;14.80;;;;;;;-145.63;100.00;61273.97;5024196;28;20087;-65
2023/03/16 02:30:13;;;;;;;17.25;14.25;;;;;;;-145.63;100.00;61273.97;5013509;28;20121;-66
2023/03/16 02:32:39;;;;;;;19.30;14.15;;;;;;;-145.63;100.00;61273.97;5028466;28;20041;-65
2023/03/16 02:35:06;;;;;;;19.13;13.35;;;;;;;-145.63;100.00;61273.97;5013958;28;20299;-65
2023/03/16 02:37:32;;;;;;;17.90;13.38;;;;;;;-145.63;100.00;61273.97;5019499;28;20041;-65
2023/03/16 02:39:59;;;;;;;19.40;14.70;;;;;;;-145.63;100.00;61273.97;5024028;28;20025;-66
2023/03/16 02:42:27;;;;;;;19.55;14.13;;;;;;;-145.63;100.00;61273.97;5023806;28;20340;-65
2023/03/16 02:44:56;;;;;;;15.13;12.85;;;;;;;-145.63;100.00;61273.97;5021086;28;20038;-66
2023/03/16 02:47:34;;;;;;;17.55;12.80;;;;;;;-145.63;100.00;61273.97;5012005;28;20106;-64
2023/03/16 02:50:05;;;;;;;17.80;14.02;;;;;;;-145.63;100.00;61273.97;5011666;28;20040;-64
2023/03/16 02:52:32;;;;;;;32.92;22.98;;;;;;;-145.63;100.00;61273.97;5019734;28;20045;-65
2023/03/16 02:54:57;;;;;;;17.13;13.68;;;;;;;-145.63;100.00;61273.97;5016857;28;20046;-64
2023/03/16 02:57:23;;;;;;;15.15;12.27;;;;;;;-145.63;100.00;61273.97;5020686;28;20336;-64
2023/03/16 02:59:48;;;;;;;17.13;13.57;;;;;;;-145.63;100.00;61273.97;5009289;28;20291;-65
2023/03/16 03:02:14;;;;;;;19.83;12.93;;;;;;;-145.63;100.00;61273.97;5013245;28;20064;-64
2023/03/16 03:04:45;;;;;;;18.52;12.57;;;;;;;-145.63;100.00;61273.97;5028019;28;20048;-65
2023/03/16 03:07:13;;;;;;;14.18;12.35;;;;;;;-145.63;100.00;61273.97;5017112;28;20085;-67
2023/03/16 03:09:52;;;;;;;17.95;12.68;;;;;;;-145.63;100.00;61273.97;5023621;28;20306;-64
2023/03/16 03:12:18;;;;;;;18.17;12.82;;;;;;;-145.63;100.00;61273.97;5028063;28;20030;-66
2023/03/16 03:14:43;;;;;;;14.88;12.55;;;;;;;-145.63;100.00;61273.97;5009590;28;20042;-66
2023/03/16 03:17:15;;;;;;;18.17;12.98;;;;;;;-145.63;100.00;61273.97;5007700;28;20034;-66
2023/03/16 03:19:40;;;;;;;15.77;12.52;;;;;;;-145.63;100.00;61273.97;5007763;28;20038;-65
2023/03/16 03:22:06;;;;;;;16.35;12.15;;;;;;;-145.63;100.00;61273.97;5008264;28;20033;-65
2023/03/16 03:24:33;;;;;;;18.67;13.75;;;;;;;-145.63;100.00;61273.97;5002958;28;20120;-65
2023/03/16 03:26:59;;;;;;;16.25;13.70;;;;;;;-145.63;100.00;61273.97;5022255;28;20033;-65
2023/03/16 03:29:35;;;;;;;14.30;12.50;;;;;;;-145.63;100.00;61273.97;5011237;28;20076;-65
2023/03/16 03:32:07;;;;;;;17.55;14.23;;;;;;;-145.63;100.00;61273.97;5029850;28;20232;-64
2023/03/16 03:34:33;;;;;;;14.60;12.65;;;;;;;-145.63;100.00;61273.97;5014329;28;20037;-65
2023/03/16 03:36:59;;;;;;;14.95;12.65;;;;;;;-145.63;100.00;61273.97;5027747;28;20089;-65
2023/03/16 03:39:31;;;;;;;15.70;12.57;;;;;;;-145.63;100.00;61273.97;5021487;28;20253;-65
2023/03/16 03:41:56;;;;;;;19.65;12.82;;;;;;;-145.63;100.00;61273.97;5023030;28;20030;-65
2023/03/16 03:44:23;;;;;;;17.17;12.90;;;;;;;-145.63;100.00;61273.97;5017722;28;20030;-66
2023/03/16 03:46:50;;;;;;;16.50;13.00;;;;;;;-145.63;100.00;61273.97;5017095;28;20069;-66
2023/03/16 03:49:16;;;;;;;16.85;12.75;;;;;;;-145.63;100.00;61273.97;5014424;28;20101;-64
2023/03/16 03:51:45;;;;;;;16.35;13.05;;;;;;;-145.63;100.00;61273.97;5017118;28;20293;-63
2023/03/16 03:54:14;;;;;;;13.13;11.73;;;;;;;-145.63;100.00;61273.97;5020469;28;20037;-65
2023/03/16 03:56:39;;;;;;;15.13;12.63;;;;;;;-145.63;100.00;61273.97;5017793;28;20038;-65
2023/03/16 03:59:05;;;;;;;17.30;12.30;;;;;;;-145.63;100.00;61273.97;5014920;28;20064;-65
2023/03/16 04:01:37;;;;;;;16.40;12.65;;;;;;;-145.63;100.00;61273.97;5013417;28;20084;-66
2023/03/16 04:04:02;;;;;;;17.13;12.57;;;;;;;-145.63;100.00;61273.97;5052181;28;20092;-65
2023/03/16 04:06:28;;;;;;;19.45;13.05;;;;;;;-145.63;100.00;61273.97;5008302;28;20318;-65
2023/03/16 04:08:54;;;;;;;16.50;12.57;;;;;;;-145.63;100.00;61273.97;5008439;28;20056;-66
2023/03/16 04:11:20;;;;;;;16.15;12.57;;;;;;;-145.63;100.00;61273.97;5004706;28;20196;-66
2023/03/16 04:13:46;;;;;;;17.60;11.95;;;;;;;-145.63;100.00;61273.97;5011806;28;20026;-66
2023/03/16 04:16:15;;;;;;;16.95;12.52;;;;;;;-145.63;100.00;61273.97;5020067;28;20334;-65
2023/03/16 04:18:40;;;;;;;15.20;11.50;;;;;;;-145.63;100.00;61273.97;5008746;28;20025;-64
2023/03/16 04:21:11;;;;;;;17.48;12.13;;;;;;;-145.63;100.00;61273.97;5022455;28;20053;-67
2023/03/16 04:23:37;;;;;;;12.25;10.95;;;;;;;-145.63;100.00;61273.97;5010499;28;20018;-66
2023/03/16 04:26:06;;;;;;;17.05;12.30;;;;;;;-145.63;100.00;61273.97;5012625;28;20072;-66
2023/03/16 04:28:31;;;;;;;17.55;13.10;;;;;;;-145.63;100.00;61273.97;5019283;28;20062;-66
2023/03/16 04:31:01;;;;;;;16.85;12.35;;;;;;;-145.63;100.00;61273.97;5014641;28;20025;-66
2023/03/16 04:33:27;;;;;;;17.42;12.48;;;;;;;-145.63;100.00;61273.97;5023421;28;20042;-67
2023/03/16 04:35:53;;;;;;;18.30;13.30;;;;;;;-145.63;100.00;61273.97;5008610;28;20022;-66
2023/03/16 04:38:18;;;;;;;16.13;13.45;;;;;;;-145.63;100.00;61273.97;5013435;28;20058;-65
2023/03/16 04:40:44;;;;;;;13.70;12.27;;;;;;;-145.63;100.00;61273.97;5021823;28;20246;-67
2023/03/16 04:43:09;;;;;;;18.65;13.07;;;;;;;-145.63;100.00;61273.97;5021636;28;20026;-66
2023/03/16 04:45:35;;;;;;;15.02;12.45;;;;;;;-145.63;100.00;61273.97;5014450;28;20049;-65
2023/03/16 04:48:00;;;;;;;15.35;11.88;;;;;;;-145.63;100.00;61273.97;5007427;28;20026;-66
2023/03/16 04:50:35;;;;;;;17.13;12.55;;;;;;;-145.63;100.00;61273.97;5012932;28;20053;-66
2023/03/16 04:53:01;;;;;;;18.75;12.52;;;;;;;-145.63;100.00;61273.97;5015277;28;20089;-66
2023/03/16 04:55:26;;;;;;;14.80;12.35;;;;;;;-145.63;100.00;61273.97;5010660;28;20322;-65
2023/03/16 04:57:52;;;;;;;15.45;12.52;;;;;;;-145.63;100.00;61273.97;5019038;28;20040;-66
2023/03/16 05:00:19;;;;;;;16.38;12.13;;;;;;;-145.63;100.00;61273.97;5024731;28;20032;-66
2023/03/16 05:02:46;;;;;;;18.17;12.07;;;;;;;-145.63;100.00;61273.97;5016863;28;20034;-66
2023/03/16 05:05:12;;;;;;;15.88;11.82;;;;;;;-145.63;100.00;61273.97;5025259;28;20018;-65
2023/03/16 05:07:40;;;;;;;13.20;11.60;;;;;;;-145.63;100.00;61273.97;5021889;28;20065;-65
2023/03/16 05:10:07;;;;;;;14.80;11.68;;;;;;;-145.63;100.00;61273.97;5020678;28;20038;-65
2023/03/16 05:12:32;;;;;;;15.38;11.18;;;;;;;-145.63;100.00;61273.97;5024249;28;20049;-64
2023/03/16 05:14:58;;;;;;;18.80;12.57;;;;;;;-145.63;100.00;61273.97;5016316;28;20218;-64
2023/03/16 05:17:24;;;;;;;18.50;12.60;;;;;;;-145.63;100.00;61273.97;5007726;28;20089;-65
2023/03/16 05:19:49;;;;;;;18.15;11.63;;;;;;;-145.63;100.00;61273.97;5017948;28;20052;-66
2023/03/16 05:22:15;;;;;;;16.88;13.43;;;;;;;-145.63;100.00;61273.97;5024916;28;20026;-65
2023/03/16 05:24:41;;;;;;;20.33;14.02;;;;;;;-145.63;100.00;61273.97;5023512;28;20034;-64
2023/03/16 05:27:06;;;;;;;19.17;13.60;;;;;;;-145.63;100.00;61273.97;5015746;28;20021;-65
2023/03/16 05:29:33;;;;;;;18.33;13.05;;;;;;;-145.63;100.00;61273.97;5022333;28;20026;-66
2023/03/16 05:31:59;;;;;;;23.17;14.52;;;;;;;-145.63;100.00;61273.97;5019168;28;20069;-66
2023/03/16 05:34:25;;;;;;;18.63;13.23;;;;;;;-145.63;100.00;61273.97;5011764;28;20197;-65
2023/03/16 05:36:50;;;;;;;18.92;14.50;;;;;;;-145.63;100.00;61273.97;5024759;28;20029;-66
2023/03/16 05:39:16;;;;;;;19.58;14.07;;;;;;;-145.63;100.00;61273.97;5014893;28;20187;-65
2023/03/16 05:41:42;;;;;;;16.73;12.90;;;;;;;-145.63;100.00;61273.97;5024877;28;20305;-64
2023/03/16 05:44:08;;;;;;;19.48;14.00;;;;;;;-145.63;100.00;61273.97;5025610;28;20333;-66
2023/03/16 05:46:34;;;;;;;18.33;14.88;;;;;;;-145.63;100.00;61273.97;5012615;28;20038;-66
2023/03/16 05:48:59;;;;;;;16.38;13.90;;;;;;;-145.63;100.00;61273.97;5023483;28;20092;-64
2023/03/16 05:51:25;;;;;;;20.63;15.25;;;;;;;-145.63;100.00;61273.97;5014121;28;20037;-66
2023/03/16 05:53:55;;;;;;;20.33;15.40;;;;;;;-145.63;100.00;61273.97;5021794;28;20048;-66
2023/03/16 05:56:26;;;;;;;15.73;13.30;;;;;;;-145.63;100.00;61273.97;5015504;28;20051;-66
2023/03/16 05:58:53;;;;;;;20.83;16.30;;;;;;;-145.63;100.00;61273.97;5020476;28;20042;-65
2023/03/16 06:01:20;;;;;;;20.70;15.20;;;;;;;-145.63;100.00;61273.97;5024533;28;20036;-65
2023/03/16 06:03:47;;;;;;;18.70;14.75;;;;;;;-145.63;100.00;61273.97;5013771;28;20108;-66
2023/03/16 06:06:23;;;;;;;18.77;13.88;;;;;;;-145.63;100.00;61273.97;5021414;28;20030;-65
2023/03/16 06:08:48;;;;;;;18.30;14.80;;;;;;;-145.63;100.00;61273.97;5011464;28;20030;-65
2023/03/16 06:11:14;;;;;;;17.95;14.88;;;;;;;-145.63;100.00;61273.97;5020975;28;20032;-66
2023/03/16 06:13:40;;;;;;;24.88;15.25;;;;;;;-145.63;100.00;61273.97;5026885;28;20089;-66
2023/03/16 06:16:07;;;;;;;17.80;14.70;;;;;;;-145.63;100.00;61273.97;5032195;28;20063;-64
2023/03/16 06:18:33;;;;;;;16.67;14.80;;;;;;;-145.63;100.00;61273.97;5020838;28;20026;-64
2023/03/16 06:20:59;;;;;;;16.25;13.75;;;;;;;-145.63;100.00;61273.97;5024282;28;20088;-65
2023/03/16 06:23:25;;;;;;;18.17;14.38;;;;;;;-145.63;100.00;61273.97;5020092;28;20214;-65
2023/03/16 06:25:54;;;;;;;16.42;13.88;;;;;;;-145.63;100.00;61273.97;5019668;28;20138;-66
2023/03/16 06:28:20;;;;;;;16.05;13.23;;;;;;;-145.63;100.00;61273.97;5016888;28;20029;-65
2023/03/16 06:30:45;;;;;;;18.58;13.70;;;;;;;-145.63;100.00;61273.97;5023398;28;20039;-66
2023/03/16 06:33:11;;;;;;;18.70;14.48;;;;;;;-145.63;100.00;61273.97;5011570;28;20045;-67
2023/03/16 06:35:37;;;;;;;19.42;14.57;;;;;;;-145.63;100.00;61273.97;5020782;28;20038;-66
2023/03/16 06:38:02;;;;;;;20.13;14.35;;;;;;;-145.63;100.00;61273.97;5008062;28;20026;-66
2023/03/16 06:40:28;;;;;;;17.48;13.55;;;;;;;-145.63;100.00;61273.97;5022501;28;20092;-66
2023/03/16 06:42:54;;;;;;;19.15;14.65;;;;;;;-145.63;100.00;61273.97;5032080;28;20087;-66
2023/03/16 06:45:24;;;;;;;20.95;14.63;;;;;;;-145.63;100.00;61273.97;5011017;28;20022;-68
2023/03/16 06:47:50;;;;;;;18.88;14.93;;;;;;;-145.63;100.00;61273.97;5035588;28;20029;-69
2023/03/16 06:50:17;;;;;;;17.90;15.15;;;;;;;-145.63;100.00;61273.97;5024785;28;20030;-65
2023/03/16 06:52:42;;;;;;;19.95;15.60;;;;;;;-145.63;100.00;61273.97;5013564;28;20041;-65
2023/03/16 06:55:08;;;;;;;23.27;16.90;;;;;;;-145.63;100.00;61273.97;5028183;28;20071;-65
2023/03/16 06:57:37;;;;;;;20.20;15.45;;;;;;;-145.63;100.00;61273.97;5028022;28;20026;-66
2023/03/16 07:00:06;;;;;;;21.70;18.13;;;;;;;-145.63;100.00;61273.97;5016620;28;20076;-66
2023/03/16 07:02:34;;;;;;;26.33;17.70;;;;;;;-145.63;100.00;61273.97;5029785;28;20033;-66
2023/03/16 07:05:00;;;;;;;21.88;16.33;;;;;;;-145.63;100.00;61273.97;5029186;28;20029;-66
2023/03/16 07:07:26;;;;;;;23.85;17.75;;;;;;;-145.63;100.00;61273.97;5024720;28;20096;-64
2023/03/16 07:09:52;;;;;;;22.63;16.73;;;;;;;-145.63;100.00;61273.97;5027247;28;20040;-67
2023/03/16 07:12:23;;;;;;;22.40;17.17;;;;;;;-145.63;100.00;61273.97;5032108;28;20022;-66
2023/03/16 07:14:50;;;;;;;22.88;17.63;;;;;;;-145.63;100.00;61273.97;5028582;28;20211;-66
2023/03/16 07:17:16;;;;;;;21.27;16.27;;;;;;;-145.63;100.00;61273.97;5031147;28;20026;-66
2023/03/16 07:19:42;;;;;;;22.10;17.40;;;;;;;-145.63;100.00;61273.97;5030763;28;20076;-65
2023/03/16 07:22:08;;;;;;;22.85;17.65;;;;;;;-145.63;100.00;61273.97;5027784;28;20037;-66
2023/03/16 07:24:34;;;;;;;22.05;17.77;;;;;;;-145.63;100.00;61273.97;5032710;28;20345;-67
2023/03/16 07:27:12;;;;;;;23.88;17.27;;;;;;;-145.63;100.00;61273.97;5032271;28;20025;-66
2023/03/16 07:29:37;;;;;;;21.15;17.20;;;;;;;-145.63;100.00;61273.97;5029796;28;20017;-66
2023/03/16 07:32:06;;;;;;;25.50;16.27;;;;;;;-145.63;100.00;61273.97;5030718;28;20025;-67
2023/03/16 07:34:31;;;;;;;23.63;18.23;;;;;;;-145.63;100.00;61273.97;5033213;28;20333;-67
2023/03/16 07:37:19;;;;;;;23.20;18.95;;;;;;;-145.63;100.00;61273.97;5031289;28;20038;-66
2023/03/16 07:39:53;;;;;;;22.17;18.58;;;;;;;-145.63;100.00;61273.97;5032116;28;20048;-67
2023/03/16 07:42:18;;;;;;;23.63;19.63;;;;;;;-145.63;100.00;61273.97;5029503;28;20111;-65
2023/03/16 07:44:44;;;;;;;23.67;19.08;;;;;;;-145.63;100.00;61273.97;5030633;28;20044;-67
2023/03/16 07:47:15;;;;;;;23.80;19.40;;;;;;;-145.63;100.00;61273.97;5032023;28;20021;-68
2023/03/16 07:49:41;;;;;;;25.55;19.00;;;;;;;-145.63;100.00;61273.97;5026125;28;20021;-66
2023/03/16 07:52:12;;;;;;;25.27;19.83;;;;;;;-145.63;100.00;61273.97;5030858;28;20302;-66
2023/03/16 07:54:44;;;;;;;23.92;19.85;;;;;;;-145.63;100.00;61273.97;5030087;28;20165;-65
2023/03/16 07:57:12;;;;;;;24.35;20.42;;;;;;;-145.63;100.00;61273.97;5031520;28;20336;-65
2023/03/16 07:59:40;;;;;;;24.85;19.67;;;;;;;-145.63;100.00;61273.97;5029286;28;20076;-66
2023/03/16 08:02:15;;;;;;;20.77;17.70;;;;;;;-145.63;100.00;61273.97;5028038;28;20034;-67
2023/03/16 08:04:44;;;;;;;26.05;20.73;;;;;;;-145.63;100.00;61273.97;5029500;28;20083;-67
2023/03/16 08:07:13;;;;;;;25.92;20.80;;;;;;;-145.63;100.00;61273.97;5030192;28;20037;-67
2023/03/16 08:09:42;;;;;;;26.20;21.15;;;;;;;-145.63;100.00;61273.97;5030104;28;20032;-66
2023/03/16 08:12:08;;;;;;;24.85;21.00;;;;;;;-145.63;100.00;61273.97;5032529;28;20475;-66
2023/03/16 08:14:35;;;;;;;25.00;19.75;;;;;;;-145.63;100.00;61273.97;5027970;28;20060;-66
2023/03/16 08:17:06;;;;;;;27.02;21.08;;;;;;;-145.63;100.00;61273.97;5030917;28;20376;-66
2023/03/16 08:19:34;;;;;;;28.70;22.02;;;;;;;-145.63;100.00;61273.97;5029377;28;20198;-66
2023/03/16 08:22:06;;;;;;;28.77;22.17;;;;;;;-145.63;100.00;61273.97;5022448;28;20032;-65
2023/03/16 08:24:38;;;;;;;24.15;20.75;;;;;;;-145.63;100.00;61273.97;5011699;28;20310;-66
2023/03/16 08:27:04;;;;;;;;;;;;;;;-145.63;100.00;61273.97;5027716;28;20029;-66
2023/03/16 08:29:42;;;;;;;25.27;20.33;;;;;;;-145.63;100.00;61273.97;5031434;28;19905;-66
2023/03/16 08:32:07;;;;;;;24.40;20.55;;;;;;;-145.63;100.00;61273.97;5032358;28;20033;-66
2023/03/16 08:34:35;;;;;;;23.80;20.33;;;;;;;-145.63;100.00;61273.97;5033305;28;20036;-65
2023/03/16 08:37:00;;;;;;;23.77;20.85;;;;;;;-145.63;100.00;61273.97;5025897;28;20216;-66
2023/03/16 08:39:26;;;;;;;22.23;18.80;;;;;;;-145.63;100.00;61273.97;5023761;28;20058;-66
2023/03/16 08:42:01;;;;;;;25.70;21.38;;;;;;;-145.63;100.00;61273.97;5025865;28;20045;-65
2023/03/16 08:44:27;;;;;;;28.02;22.10;;;;;;;-145.63;100.00;61273.97;5021514;28;20040;-65
2023/03/16 08:46:52;;;;;;;26.88;22.75;;;;;;;-145.63;100.00;61273.97;5021698;28;20041;-66
2023/03/16 08:49:19;;;;;;;24.48;21.63;;;;;;;-145.63;100.00;61273.97;5019671;28;20029;-65
2023/03/16 08:51:59;;;;;;;25.23;21.60;;;;;;;-145.63;100.00;61273.97;5023417;28;20246;-66
2023/03/16 08:54:25;;;;;;;30.75;21.90;;;;;;;-145.63;100.00;61273.97;5023923;28;20144;-66
2023/03/16 08:56:59;;;;;;;26.55;22.55;;;;;;;-145.63;100.00;61273.97;5035198;28;20037;-66
2023/03/16 08:59:24;;;;;;;27.27;22.67;;;;;;;-145.63;100.00;61273.97;5024478;28;20030;-65
2023/03/16 09:01:50;;;;;;;28.90;21.95;;;;;;;-145.63;100.00;61273.97;5021164;28;20041;-65
2023/03/16 09:04:28;;;;;;;29.20;22.92;;;;;;;-145.63;100.00;61273.97;5021083;28;20311;-64
2023/03/16 09:06:54;;;;;;;28.42;22.55;;;;;;;-145.63;100.00;61273.97;5025891;28;20029;-65
2023/03/16 09:09:29;;;;;;;26.80;22.80;;;;;;;-145.63;100.00;61273.97;5015415;28;20097;-65
2023/03/16 09:12:11;;;;;;;29.27;23.40;;;;;;;-145.63;100.00;61273.97;5023856;28;20341;-65
2023/03/16 09:14:40;;;;;;;28.13;22.17;;;;;;;-145.63;100.00;61273.97;5015222;28;20030;-65
2023/03/16 09:17:10;;;;;;;23.80;21.23;;;;;;;-145.63;100.00;61273.97;5022791;28;20034;-65
2023/03/16 09:19:44;;;;;;;26.02;21.75;;;;;;;-145.63;100.00;61273.97;5024772;28;20038;-65
2023/03/16 09:22:10;;;;;;;27.70;23.42;;;;;;;-145.63;100.00;61273.97;5024641;28;20092;-66
2023/03/16 09:24:44;;;;;;;27.63;22.80;;;;;;;-145.63;100.00;61273.97;5022744;28;20033;-65
2023/03/16 09:27:10;;;;;;;26.80;21.38;;;;;;;-145.63;100.00;61273.97;5031091;28;20030;-66
2023/03/16 09:29:39;;;;;;;27.52;22.25;;;;;;;-145.63;100.00;61273.97;5011529;28;20041;-66
2023/03/16 09:32:06;;;;;;;26.85;22.08;;;;;;;-145.63;100.00;61273.97;5023459;28;20069;-66
2023/03/16 09:34:32;;;;;;;26.98;22.02;;;;;;;-145.63;100.00;61273.97;5018861;28;20038;-66
2023/03/16 09:36:57;;;;;;;28.45;24.65;;;;;;;-145.63;100.00;61273.97;5021932;28;20026;-67
2023/03/16 09:39:28;;;;;;;27.17;23.83;;;;;;;-145.63;100.00;61273.97;5013649;28;20033;-67
2023/03/16 09:42:18;;;;;;;29.73;25.10;;;;;;;-145.63;100.00;61273.97;5024394;28;20036;-68
2023/03/16 09:44:55;;;;;;;28.17;23.45;;;;;;;-145.63;100.00;61273.97;5014112;28;20038;-66
2023/03/16 09:47:27;;;;;;;29.60;24.08;;;;;;;-145.63;100.00;61273.97;5043661;28;20034;-66
2023/03/16 09:50:00;;;;;;;32.97;25.88;;;;;;;-145.63;100.00;61273.97;5027628;28;20029;-68
2023/03/16 09:52:37;;;;;;;31.40;25.70;;;;;;;-145.63;100.00;61273.97;5031409;28;20029;-67
2023/03/16 09:55:21;;;;;;;33.33;26.95;;;;;;;-145.63;100.00;61273.97;5021993;28;20050;-67
2023/03/16 09:57:50;;;;;;;31.02;24.45;;;;;;;-145.63;100.00;61273.97;5011643;28;20033;-68
2023/03/16 10:00:21;;;;;;;30.63;26.27;;;;;;;-145.63;100.00;61273.97;5021024;28;20046;-66
2023/03/16 10:03:23;;;;;;;31.65;25.55;;;;;;;-145.63;100.00;61273.97;5014133;28;20034;-67
2023/03/16 10:06:16;;;;;;;32.55;25.17;;;;;;;-145.63;100.00;61273.97;5008528;28;20157;-67
2023/03/16 10:08:59;;;;;;;29.10;25.13;;;;;;;-145.63;100.00;61273.97;5008535;28;20199;-67
2023/03/16 10:11:51;;;;;;;28.52;24.30;;;;;;;-145.63;100.00;61273.97;5018499;28;20021;-67
2023/03/16 10:14:35;;;;;;;29.52;24.55;;;;;;;-145.63;100.00;61273.97;5020314;28;20030;-67
2023/03/16 10:17:22;;;;;;;26.95;23.70;;;;;;;-145.63;100.00;61273.97;5019887;28;20235;-67
2023/03/16 10:19:56;;;;;;;25.25;22.27;;;;;;;-145.63;100.00;61273.97;5009747;28;20037;-67
2023/03/16 10:22:29;;;;;;;24.38;21.58;;;;;;;-145.63;100.00;61273.97;5023670;28;20036;-66
2023/03/16 10:25:34;;;;;;;25.92;21.65;;;;;;;-145.63;100.00;61273.97;5018120;28;20046;-66
2023/03/16 10:28:06;;;;;;;24.67;21.60;;;;;;;-145.63;100.00;61273.97;5016952;28;20179;-67
2023/03/16 10:30:39;;;;;;;;;;;;;;;-145.63;100.00;61273.97;5020964;28;20057;-67
2023/03/16 10:33:19;;;;;;;24.35;21.48;;;;;;;-145.63;100.00;61273.97;5015544;28;19917;-67
2023/03/16 10:35:53;;;;;;;26.15;23.17;;;;;;;-145.63;100.00;61273.97;5013694;28;20053;-67
2023/03/16 10:38:54;;;;;;;29.08;23.40;;;;;;;-145.63;100.00;61273.97;5026941;28;20032;-67
2023/03/16 10:41:36;;;;;;;27.38;23.60;;;;;;;-145.63;100.00;61273.97;5008820;28;20037;-68
2023/03/16 10:44:22;;;;;;;28.75;24.33;;;;;;;-145.63;100.00;61273.97;5006604;28;20311;-67
2023/03/16 10:46:59;;;;;;;28.52;24.08;;;;;;;-145.63;100.00;61273.97;5049444;28;20325;-68
2023/03/16 10:49:40;;;;;;;30.45;25.63;;;;;;;-145.63;100.00;61273.97;5009467;28;20026;-68
2023/03/16 10:52:18;;;;;;;35.13;27.00;;;;;;;-145.63;100.00;61273.97;5009049;28;20038;-67
2023/03/16 10:54:51;;;;;;;26.95;23.70;;;;;;;-145.63;100.00;61273.97;5016791;28;20070;-66
2023/03/16 10:57:28;;;;;;;30.48;24.83;;;;;;;-145.63;100.00;61273.97;5009462;28;20038;-67
2023/03/16 10:59:59;;;;;;;29.73;26.35;;;;;;;-145.63;100.00;61273.97;5014379;28;20041;-66
2023/03/16 11:02:31;;;;;;;31.08;26.45;;;;;;;-145.63;100.00;61273.97;5016328;28;20357;-67
2023/03/16 11:04:57;;;;;;;36.72;29.25;;;;;;;-145.63;100.00;61273.97;5013353;28;20038;-67